Terminal Aerodrome Forecast
Issued by NWS

Home | Current Version | Previous Version | Text Only | Print | Product List | Glossary On
Versions: 1 2 3 4 5 6 7 8 9 10 11 12 13 14 15 16 17 18 19 20 21 22 23 24 25 26 27 28 29
876
FTUS43 KSGF 281721
TAFBBG
TAF
KBBG 281721Z 2818/2918 10004KT P6SM OVC015
     FM282000 10005KT P6SM SCT025
     FM290400 10008KT P6SM OVC030
     FM290500 10009KT P6SM BKN015
     FM290700 11009KT P6SM VCTS OVC008CB
     FM291200 11007KT P6SM -SHRA OVC008
     FM291400 11008KT 5SM -SHRA OVC003
     FM291500 12008KT 4SM -SHRA OVC010=

USA.gov is the U.S. government's official web portal to all federal, state and local government web resources and services.